createdAt,value
2022-09-13T00:00:49.911Z,99.99
2022-09-13T00:01:49.861Z,99.99
2022-09-13T00:02:49.857Z,99.99
2022-09-13T00:03:49.875Z,99.99
2022-09-13T00:04:49.892Z,99.99
2022-09-13T00:05:49.913Z,99.99
2022-09-13T00:06:49.926Z,99.99
2022-09-13T00:07:49.942Z,99.99
2022-09-13T00:08:50.119Z,99.99
2022-09-13T00:09:49.975Z,99.99
2022-09-13T00:10:50.000Z,99.99
2022-09-13T00:11:50.013Z,99.99
2022-09-13T00:12:50.029Z,99.99
2022-09-13T00:13:50.043Z,99.99
2022-09-13T00:14:50.063Z,99.99
2022-09-13T00:15:50.082Z,99.99
2022-09-13T00:16:50.157Z,99.99
2022-09-13T00:17:50.116Z,99.99
2022-09-13T00:18:50.256Z,99.99
2022-09-13T00:19:50.145Z,99.99
2022-09-13T00:20:50.162Z,99.99
2022-09-13T00:21:50.178Z,99.99
2022-09-13T00:22:50.200Z,99.99
2022-09-13T00:23:50.212Z,99.99
2022-09-13T00:24:50.232Z,99.99
2022-09-13T00:25:50.248Z,99.99
2022-09-13T00:26:50.262Z,99.99
2022-09-13T00:27:50.283Z,99.99
2022-09-13T00:28:50.300Z,99.99
2022-09-13T00:29:50.316Z,99.99
2022-09-13T00:30:50.331Z,99.99
2022-09-13T00:31:50.379Z,99.99
2022-09-13T00:32:50.366Z,99.99
2022-09-13T00:33:50.381Z,99.99
2022-09-13T00:34:50.400Z,99.99
2022-09-13T00:35:50.417Z,99.99
2022-09-13T00:36:50.432Z,99.99
2022-09-13T00:37:50.453Z,99.99
2022-09-13T00:38:50.470Z,99.99
2022-09-13T00:39:50.511Z,99.99
2022-09-13T00:40:50.499Z,99.99
2022-09-13T00:41:50.518Z,99.99
2022-09-13T00:42:50.534Z,99.99
2022-09-13T00:43:50.554Z,99.99
2022-09-13T00:44:50.566Z,99.99
2022-09-13T00:45:50.631Z,99.99
2022-09-13T00:46:50.602Z,99.99
2022-09-13T00:47:50.621Z,99.99
2022-09-13T00:48:50.635Z,99.99
2022-09-13T00:49:50.650Z,99.99
2022-09-13T00:50:50.669Z,99.99
2022-09-13T00:51:50.688Z,99.99
2022-09-13T00:52:50.703Z,99.99
2022-09-13T00:53:50.720Z,99.99
2022-09-13T00:54:50.736Z,99.99
2022-09-13T00:55:50.753Z,99.99
2022-09-13T00:56:50.772Z,99.99
2022-09-13T00:57:50.790Z,99.99
2022-09-13T00:58:50.810Z,99.99
2022-09-13T00:59:50.820Z,99.99
2022-09-13T01:00:50.867Z,99.99
2022-09-13T01:01:50.886Z,99.99
2022-09-13T01:02:50.870Z,99.99
2022-09-13T01:03:50.887Z,99.99
2022-09-13T01:04:50.914Z,99.99
2022-09-13T01:05:50.920Z,99.99
2022-09-13T01:06:50.945Z,99.99
2022-09-13T01:07:50.952Z,99.99
2022-09-13T01:08:50.973Z,99.99
2022-09-13T01:09:50.998Z,99.99
2022-09-13T01:10:51.004Z,99.99
2022-09-13T01:11:51.021Z,99.99
2022-09-13T01:12:51.040Z,99.99
2022-09-13T01:13:51.057Z,99.99
2022-09-13T01:14:51.071Z,99.99
2022-09-13T01:15:51.088Z,99.99
2022-09-13T01:16:51.145Z,99.99
2022-09-13T01:17:51.122Z,99.99
2022-09-13T01:18:51.140Z,99.99
2022-09-13T01:19:51.159Z,99.99
2022-09-13T01:20:51.170Z,99.99
2022-09-13T01:21:51.188Z,99.99
2022-09-13T01:22:51.206Z,99.99
2022-09-13T01:23:51.222Z,99.99
2022-09-13T01:24:51.238Z,99.99
2022-09-13T01:25:51.257Z,99.99
2022-09-13T01:26:51.271Z,99.99
2022-09-13T01:27:51.301Z,99.99
2022-09-13T01:28:51.305Z,99.99
2022-09-13T01:29:51.320Z,99.99
2022-09-13T01:30:51.340Z,99.99
2022-09-13T01:31:51.425Z,99.99
2022-09-13T01:32:51.373Z,99.99
2022-09-13T01:33:51.388Z,99.99
2022-09-13T01:34:51.405Z,99.99
2022-09-13T01:35:51.425Z,99.99
2022-09-13T01:36:51.439Z,99.99
2022-09-13T01:37:51.453Z,99.99
2022-09-13T01:38:51.477Z,99.99
2022-09-13T01:39:51.512Z,99.99
2022-09-13T01:40:51.506Z,99.99
2022-09-13T01:41:51.521Z,99.99
2022-09-13T01:42:51.538Z,99.99
2022-09-13T01:43:51.556Z,99.99
2022-09-13T01:44:51.575Z,99.99
2022-09-13T01:45:51.664Z,99.99
2022-09-13T01:46:51.604Z,99.99
2022-09-13T01:47:51.622Z,99.99
2022-09-13T01:48:51.638Z,99.99
2022-09-13T01:49:51.655Z,99.99
2022-09-13T01:50:51.673Z,99.99
2022-09-13T01:51:51.690Z,99.99
2022-09-13T01:52:51.704Z,99.99
2022-09-13T01:53:51.720Z,99.99
2022-09-13T01:54:51.737Z,99.99
2022-09-13T01:55:51.755Z,99.99
2022-09-13T01:56:51.770Z,99.99
2022-09-13T01:57:51.789Z,99.99
2022-09-13T01:58:51.805Z,99.99
2022-09-13T01:59:51.820Z,99.99
2022-09-13T02:00:51.878Z,99.99
2022-09-13T02:01:51.871Z,99.99
2022-09-13T02:02:51.869Z,99.99
2022-09-13T02:03:51.887Z,99.99
2022-09-13T02:04:51.903Z,99.99
2022-09-13T02:05:51.923Z,99.99
2022-09-13T02:06:51.936Z,99.99
2022-09-13T02:07:51.953Z,99.99
2022-09-13T02:08:51.969Z,99.99
2022-09-13T02:09:51.985Z,99.99
2022-09-13T02:10:52.003Z,99.99
2022-09-13T02:11:52.020Z,99.99
2022-09-13T02:12:52.037Z,99.99
2022-09-13T02:13:52.055Z,99.99
2022-09-13T02:14:52.069Z,99.99
2022-09-13T02:15:52.087Z,99.99
2022-09-13T02:16:52.166Z,99.99
2022-09-13T02:17:52.122Z,99.99
2022-09-13T02:18:52.135Z,99.99
2022-09-13T02:19:52.151Z,99.99
2022-09-13T02:20:52.171Z,99.99
2022-09-13T02:21:52.192Z,99.99
2022-09-13T02:22:52.200Z,99.99
2022-09-13T02:23:52.217Z,99.99
2022-09-13T02:24:52.233Z,99.99
2022-09-13T02:25:52.250Z,99.99
2022-09-13T02:26:52.267Z,99.99
2022-09-13T02:27:52.286Z,99.99
2022-09-13T02:28:52.302Z,99.99
2022-09-13T02:29:52.317Z,99.99
2022-09-13T02:30:52.332Z,99.99
2022-09-13T02:31:52.417Z,99.99
2022-09-13T02:32:52.363Z,99.99
2022-09-13T02:33:52.385Z,99.99
2022-09-13T02:34:52.397Z,99.99
2022-09-13T02:35:52.414Z,99.99
2022-09-13T02:36:52.430Z,99.99
2022-09-13T02:37:52.447Z,99.99
2022-09-13T02:38:52.465Z,99.99
2022-09-13T02:39:52.504Z,99.99
2022-09-13T02:40:52.548Z,99.99
2022-09-13T02:41:52.515Z,99.99
2022-09-13T02:42:52.527Z,99.99
2022-09-13T02:43:52.546Z,99.99
2022-09-13T02:44:52.563Z,99.99
2022-09-13T02:45:52.599Z,99.99
2022-09-13T02:46:52.598Z,99.99
2022-09-13T02:47:52.609Z,99.99
2022-09-13T02:48:52.631Z,99.99
2022-09-13T02:49:52.644Z,99.99
2022-09-13T02:50:52.659Z,99.99
2022-09-13T02:51:52.676Z,99.99
2022-09-13T02:52:52.712Z,99.99
2022-09-13T02:53:52.709Z,99.99
2022-09-13T02:54:52.726Z,99.99
2022-09-13T02:55:52.743Z,99.99
2022-09-13T02:56:52.758Z,99.99
2022-09-13T02:57:52.784Z,99.99
2022-09-13T02:58:52.791Z,99.99
2022-09-13T02:59:52.808Z,99.99
2022-09-13T03:00:52.846Z,99.99
2022-09-13T03:01:52.867Z,99.99
2022-09-13T03:02:52.857Z,99.99
2022-09-13T03:03:52.874Z,99.99
2022-09-13T03:04:52.887Z,99.99
2022-09-13T03:05:52.905Z,99.99
2022-09-13T03:06:52.921Z,99.99
2022-09-13T03:07:52.938Z,99.99
2022-09-13T03:08:52.954Z,99.99
2022-09-13T03:09:52.970Z,99.99
2022-09-13T03:10:52.988Z,99.99
2022-09-13T03:11:53.003Z,99.99
2022-09-13T03:12:53.027Z,99.99
2022-09-13T03:13:53.037Z,99.99
2022-09-13T03:14:53.052Z,99.99
2022-09-13T03:15:53.070Z,99.99
2022-09-13T03:16:53.133Z,99.99
2022-09-13T03:17:53.111Z,99.99
2022-09-13T03:18:53.117Z,99.99
2022-09-13T03:19:53.133Z,99.99
2022-09-13T03:20:53.151Z,99.99
2022-09-13T03:21:53.169Z,99.99
2022-09-13T03:22:53.184Z,99.99
2022-09-13T03:23:53.203Z,99.99
2022-09-13T03:24:53.229Z,99.99
2022-09-13T03:25:53.235Z,99.99
2022-09-13T03:26:53.250Z,99.99
2022-09-13T03:27:53.274Z,99.99
2022-09-13T03:28:53.294Z,99.99
2022-09-13T03:29:53.299Z,99.99
2022-09-13T03:30:53.316Z,99.99
2022-09-13T03:31:53.408Z,99.99
2022-09-13T03:32:53.348Z,99.99
2022-09-13T03:33:53.368Z,99.99
2022-09-13T03:34:53.380Z,99.99
2022-09-13T03:35:53.396Z,99.99
2022-09-13T03:36:53.413Z,99.99
2022-09-13T03:37:53.436Z,99.99
2022-09-13T03:38:53.446Z,99.99
2022-09-13T03:39:53.513Z,99.99
2022-09-13T03:40:53.478Z,99.99
2022-09-13T03:41:53.497Z,99.99
2022-09-13T03:42:53.514Z,99.99
2022-09-13T03:43:53.530Z,99.99
2022-09-13T03:44:53.545Z,99.99
2022-09-13T03:45:53.610Z,99.99
2022-09-13T03:46:53.578Z,99.99
2022-09-13T03:47:53.594Z,99.99
2022-09-13T03:48:53.612Z,99.99
2022-09-13T03:49:53.629Z,99.99
2022-09-13T03:50:53.643Z,99.99
2022-09-13T03:51:53.660Z,99.99
2022-09-13T03:52:53.676Z,99.99
2022-09-13T03:53:53.692Z,99.99
2022-09-13T03:54:53.708Z,99.99
2022-09-13T03:55:53.726Z,99.99
2022-09-13T03:56:53.743Z,99.99
2022-09-13T03:57:53.757Z,99.99
2022-09-13T03:58:53.773Z,99.99
2022-09-13T03:59:53.790Z,99.99
2022-09-13T04:00:53.828Z,99.99
2022-09-13T04:01:53.870Z,99.99
2022-09-13T04:02:53.837Z,99.99
2022-09-13T04:03:56.841Z,99.99
2022-09-13T04:04:53.874Z,99.99
2022-09-13T04:05:53.889Z,99.99
2022-09-13T04:06:53.907Z,99.99
2022-09-13T04:07:53.921Z,99.99
2022-09-13T04:08:53.937Z,99.99
2022-09-13T04:09:53.953Z,99.99
2022-09-13T04:10:53.967Z,99.99
2022-09-13T04:11:53.987Z,99.99
2022-09-13T04:12:54.003Z,99.99
2022-09-13T04:13:54.019Z,99.99
2022-09-13T04:14:54.036Z,99.99
2022-09-13T04:15:54.052Z,99.99
2022-09-13T04:16:54.068Z,99.99
2022-09-13T04:17:54.089Z,99.99
2022-09-13T04:18:54.102Z,99.99
2022-09-13T04:19:54.119Z,99.99
2022-09-13T04:20:54.140Z,99.99
2022-09-13T04:21:54.149Z,99.99
2022-09-13T04:22:54.166Z,99.99
2022-09-13T04:23:54.185Z,99.99
2022-09-13T04:24:54.199Z,99.99
2022-09-13T04:25:54.215Z,99.99
2022-09-13T04:26:54.239Z,99.99
2022-09-13T04:27:54.251Z,99.99
2022-09-13T04:28:54.267Z,99.99
2022-09-13T04:29:54.283Z,99.99
2022-09-13T04:30:54.300Z,99.99
2022-09-13T04:31:54.354Z,99.99
2022-09-13T04:32:54.333Z,99.99
2022-09-13T04:33:54.351Z,99.99
2022-09-13T04:34:54.370Z,99.99
2022-09-13T04:35:54.384Z,99.99
2022-09-13T04:36:54.400Z,99.99
2022-09-13T04:37:54.416Z,99.99
2022-09-13T04:38:54.433Z,99.99
2022-09-13T04:39:54.528Z,99.99
2022-09-13T04:40:54.465Z,99.99
2022-09-13T04:41:54.486Z,99.99
2022-09-13T04:42:54.501Z,99.99
2022-09-13T04:43:54.517Z,99.99
2022-09-13T04:44:54.533Z,99.99
2022-09-13T04:45:54.608Z,99.99
2022-09-13T04:46:54.566Z,99.99
2022-09-13T04:47:54.584Z,99.99
2022-09-13T04:48:54.600Z,99.99
2022-09-13T04:49:54.621Z,99.99
2022-09-13T04:50:54.635Z,99.99
2022-09-13T04:51:54.651Z,99.99
2022-09-13T04:52:54.669Z,99.99
2022-09-13T04:53:54.684Z,99.99
2022-09-13T04:54:54.703Z,99.99
2022-09-13T04:55:54.720Z,99.99
2022-09-13T04:56:54.735Z,99.99
2022-09-13T04:57:54.755Z,99.99
2022-09-13T04:58:54.771Z,99.99
2022-09-13T04:59:54.785Z,99.99
2022-09-13T05:00:54.847Z,99.99
2022-09-13T05:01:54.901Z,99.99
2022-09-13T05:02:54.836Z,99.99
2022-09-13T05:03:54.855Z,99.99
2022-09-13T05:04:54.869Z,99.99
2022-09-13T05:05:54.887Z,99.99
2022-09-13T05:06:54.903Z,99.99
2022-09-13T05:07:54.920Z,99.99
2022-09-13T05:08:54.942Z,99.99
2022-09-13T05:09:54.956Z,99.99
2022-09-13T05:10:54.972Z,99.99
2022-09-13T05:11:54.989Z,99.99
2022-09-13T05:12:55.007Z,99.99
2022-09-13T05:13:55.026Z,99.99
2022-09-13T05:14:55.040Z,99.99
2022-09-13T05:15:55.087Z,99.99
2022-09-13T05:16:55.094Z,99.99
2022-09-13T05:17:55.097Z,99.99
2022-09-13T05:18:55.110Z,99.99
2022-09-13T05:19:55.128Z,99.99
2022-09-13T05:20:55.164Z,99.99
2022-09-13T05:21:55.161Z,99.99
2022-09-13T05:22:55.179Z,99.99
2022-09-13T05:23:55.202Z,99.99
2022-09-13T05:24:55.220Z,99.99
2022-09-13T05:25:55.231Z,99.99
2022-09-13T05:26:55.250Z,99.99
2022-09-13T05:27:55.269Z,99.99
2022-09-13T05:28:55.284Z,99.99
2022-09-13T05:29:55.301Z,99.99
2022-09-13T05:30:55.355Z,99.99
2022-09-13T05:31:55.339Z,99.99
2022-09-13T05:32:55.354Z,99.99
2022-09-13T05:33:55.373Z,99.99
2022-09-13T05:34:55.388Z,99.99
2022-09-13T05:35:55.406Z,99.99
2022-09-13T05:36:55.425Z,99.99
2022-09-13T05:37:55.445Z,99.99
2022-09-13T05:39:18.712Z,99.99
2022-09-13T05:40:10.753Z,99.99
2022-09-13T05:40:55.543Z,99.99
2022-09-13T05:41:55.513Z,99.99
2022-09-13T05:42:55.535Z,99.99
2022-09-13T05:43:59.411Z,99.99
2022-09-13T05:44:55.565Z,99.99
2022-09-13T05:45:55.614Z,99.99
2022-09-13T05:46:55.603Z,99.99
2022-09-13T05:47:55.619Z,99.99
2022-09-13T05:48:55.638Z,99.99
2022-09-13T05:50:09.908Z,99.99
2022-09-13T05:50:58.162Z,99.99
2022-09-13T05:51:55.689Z,99.99
2022-09-13T05:52:55.710Z,99.99
2022-09-13T05:53:55.725Z,99.99
2022-09-13T05:54:55.744Z,99.99
2022-09-13T05:55:55.758Z,99.99
2022-09-13T05:56:55.778Z,99.99
2022-09-13T05:57:55.798Z,99.99
2022-09-13T05:58:55.813Z,99.99
2022-09-13T05:59:55.832Z,99.99
2022-09-13T06:00:55.848Z,99.99
2022-09-13T06:01:55.938Z,99.99
2022-09-13T06:02:55.927Z,99.99
2022-09-13T06:03:55.900Z,99.99
2022-09-13T06:04:55.918Z,99.99
2022-09-13T06:05:55.935Z,99.99
2022-09-13T06:06:55.953Z,99.99
2022-09-13T06:07:55.971Z,99.99
2022-09-13T06:08:55.993Z,99.99
2022-09-13T06:09:56.005Z,99.99
2022-09-13T06:10:56.021Z,99.99
2022-09-13T06:11:56.038Z,99.99
2022-09-13T06:12:56.056Z,99.99
2022-09-13T06:13:56.076Z,99.99
2022-09-13T06:14:56.097Z,99.99
2022-09-13T06:15:56.128Z,99.99
2022-09-13T06:16:56.124Z,99.99
2022-09-13T06:17:56.144Z,99.99
2022-09-13T06:18:56.159Z,99.99
2022-09-13T06:19:56.179Z,99.99
2022-09-13T06:20:56.194Z,99.99
2022-09-13T06:21:56.212Z,99.99
2022-09-13T06:22:56.229Z,99.99
2022-09-13T06:23:56.246Z,99.99
2022-09-13T06:24:56.264Z,99.99
2022-09-13T06:25:56.278Z,99.99
2022-09-13T06:26:56.297Z,99.99
2022-09-13T06:27:56.314Z,99.99
2022-09-13T06:28:56.330Z,99.99
2022-09-13T06:29:56.348Z,99.99
2022-09-13T06:30:56.385Z,99.99
2022-09-13T06:31:56.383Z,99.99
2022-09-13T06:32:56.405Z,99.99
2022-09-13T06:33:56.418Z,99.99
2022-09-13T06:34:56.442Z,99.99
2022-09-13T06:35:56.455Z,99.99
2022-09-13T06:36:56.469Z,99.99
2022-09-13T06:37:56.483Z,99.66
2022-09-13T06:38:56.503Z,99.47
2022-09-13T06:39:56.574Z,99.28
2022-09-13T06:40:56.539Z,99.28
2022-09-13T06:41:56.555Z,98.99
2022-09-13T06:42:56.572Z,98.75
2022-09-13T06:43:56.593Z,98.94
2022-09-13T06:44:56.605Z,98.66
2022-09-13T06:45:56.639Z,98.37
2022-09-13T06:46:56.640Z,97.99
2022-09-13T06:47:56.658Z,98.08
2022-09-13T06:48:56.676Z,97.52
2022-09-13T06:49:56.693Z,97.32
2022-09-13T06:50:56.709Z,97.23
2022-09-13T06:51:56.730Z,97.03
2022-09-13T06:52:56.744Z,96.84
2022-09-13T06:53:56.905Z,97.13
2022-09-13T06:54:56.778Z,95.89
2022-09-13T06:55:56.799Z,95.03
2022-09-13T06:56:56.813Z,94.46
2022-09-13T06:57:56.832Z,93.70
2022-09-13T06:58:56.850Z,93.12
2022-09-13T06:59:56.869Z,92.55
2022-09-13T07:00:56.894Z,92.64
2022-09-13T07:01:56.953Z,91.97
2022-09-13T07:02:56.924Z,91.69
2022-09-13T07:03:56.938Z,91.25
2022-09-13T07:04:56.955Z,90.30
2022-09-13T07:05:56.973Z,90.20
2022-09-13T07:06:56.994Z,89.63
2022-09-13T07:07:57.009Z,89.63
2022-09-13T07:08:57.028Z,89.06
2022-09-13T07:09:57.047Z,88.58
2022-09-13T07:10:57.082Z,88.96
2022-09-13T07:11:57.088Z,88.20
2022-09-13T07:12:57.103Z,88.29
2022-09-13T07:13:57.127Z,88.24
2022-09-13T07:14:57.166Z,87.91
2022-09-13T07:15:57.218Z,88.05
2022-09-13T07:16:57.175Z,87.76
2022-09-13T07:17:57.193Z,87.66
2022-09-13T07:18:57.212Z,87.76
2022-09-13T07:19:57.232Z,87.57
2022-09-13T07:20:57.249Z,87.76
2022-09-13T07:21:57.271Z,87.19
2022-09-13T07:22:57.288Z,87.38
2022-09-13T07:23:57.305Z,87.09
2022-09-13T07:24:57.322Z,86.52
2022-09-13T07:25:57.343Z,87.00
2022-09-13T07:26:57.365Z,87.09
2022-09-13T07:27:57.383Z,86.90
2022-09-13T07:28:57.400Z,86.71
2022-09-13T07:29:57.420Z,86.33
2022-09-13T07:30:57.454Z,86.43
2022-09-13T07:31:57.456Z,85.66
2022-09-13T07:32:57.474Z,85.94
2022-09-13T07:33:57.494Z,85.75
2022-09-13T07:34:57.514Z,85.57
2022-09-13T07:35:57.531Z,85.85
2022-09-13T07:36:57.549Z,85.89
2022-09-13T07:37:57.569Z,85.41
2022-09-13T07:38:57.588Z,85.41
2022-09-13T07:39:57.630Z,85.03
2022-09-13T07:40:57.627Z,85.13
2022-09-13T07:41:57.645Z,84.84
2022-09-13T07:42:57.666Z,84.84
2022-09-13T07:43:57.684Z,84.55
2022-09-13T07:44:57.703Z,84.36
2022-09-13T07:45:57.759Z,84.36
2022-09-13T07:46:57.744Z,84.36
2022-09-13T07:47:57.759Z,83.79
2022-09-13T07:48:57.782Z,83.93
2022-09-13T07:49:57.802Z,84.31
2022-09-13T07:50:57.820Z,83.64
2022-09-13T07:51:57.841Z,83.73
2022-09-13T07:52:57.859Z,83.36
2022-09-13T07:53:57.970Z,83.45
2022-09-13T07:54:57.900Z,82.78
2022-09-13T07:55:57.919Z,83.36
2022-09-13T07:56:57.937Z,83.06
2022-09-13T07:57:57.958Z,82.87
2022-09-13T07:58:57.979Z,82.59
2022-09-13T07:59:57.998Z,82.68
2022-09-13T08:00:58.065Z,82.97
2022-09-13T08:01:58.120Z,82.78
2022-09-13T08:02:58.061Z,82.73
2022-09-13T08:03:58.079Z,82.53
2022-09-13T08:04:58.107Z,82.92
2022-09-13T08:05:58.127Z,82.43
2022-09-13T08:06:58.140Z,82.34
2022-09-13T08:07:58.160Z,82.82
2022-09-13T08:08:58.179Z,83.20
2022-09-13T08:09:58.198Z,83.20
2022-09-13T08:10:58.219Z,83.78
2022-09-13T08:11:58.240Z,83.87
2022-09-13T08:12:58.259Z,83.87
2022-09-13T08:13:58.291Z,83.68
2022-09-13T08:14:58.300Z,83.78
2022-09-13T08:15:58.388Z,83.78
2022-09-13T08:16:58.340Z,83.78
2022-09-13T08:17:58.362Z,83.49
2022-09-13T08:18:58.382Z,83.39
2022-09-13T08:19:58.403Z,82.92
2022-09-13T08:20:58.424Z,82.96
2022-09-13T08:21:58.443Z,82.92
2022-09-13T08:22:58.463Z,82.53
2022-09-13T08:23:58.485Z,82.57
2022-09-13T08:24:58.504Z,82.48
2022-09-13T08:25:58.525Z,82.57
2022-09-13T08:26:58.546Z,82.29
2022-09-13T08:27:58.567Z,82.96
2022-09-13T08:28:58.587Z,83.15
2022-09-13T08:29:58.608Z,83.15
2022-09-13T08:30:58.679Z,82.96
2022-09-13T08:31:58.650Z,82.96
2022-09-13T08:32:58.669Z,82.48
2022-09-13T08:33:58.692Z,82.86
2022-09-13T08:34:58.711Z,82.67
2022-09-13T08:35:58.733Z,82.38
2022-09-13T08:36:58.757Z,82.71
2022-09-13T08:37:58.775Z,82.81
2022-09-13T08:38:58.795Z,82.90
2022-09-13T08:39:58.853Z,84.25
2022-09-13T08:40:58.836Z,84.15
2022-09-13T08:41:58.859Z,84.53
2022-09-13T08:42:58.877Z,85.01
2022-09-13T08:43:58.901Z,84.82
2022-09-13T08:44:58.927Z,84.25
2022-09-13T08:45:58.966Z,84.44
2022-09-13T08:46:58.964Z,83.86
2022-09-13T08:47:58.986Z,83.95
2022-09-13T08:48:59.024Z,84.44
2022-09-13T08:49:59.026Z,84.09
2022-09-13T08:50:59.048Z,84.38
2022-09-13T08:51:59.084Z,84.95
2022-09-13T08:52:59.088Z,85.05
2022-09-13T08:53:59.110Z,85.15
2022-09-13T08:54:59.134Z,84.38
2022-09-13T08:55:59.155Z,84.09
2022-09-13T08:56:59.177Z,84.09
2022-09-13T08:57:59.198Z,84.14
2022-09-13T08:58:59.220Z,84.71
2022-09-13T08:59:59.262Z,84.33
2022-09-13T09:00:59.328Z,84.14
2022-09-13T09:01:59.285Z,83.65
2022-09-13T09:02:59.370Z,83.94
2022-09-13T09:03:59.329Z,84.23
2022-09-13T09:04:59.351Z,85.24
2022-09-13T09:05:59.373Z,86.58
2022-09-13T09:06:59.398Z,86.10
2022-09-13T09:07:59.425Z,86.10
2022-09-13T09:08:59.441Z,86.10
2022-09-13T09:09:59.463Z,85.81
2022-09-13T09:10:59.488Z,86.00
2022-09-13T09:11:59.510Z,86.10
2022-09-13T09:12:59.528Z,87.29
2022-09-13T09:13:59.551Z,87.39
2022-09-13T09:14:59.575Z,88.93
2022-09-13T09:15:59.666Z,89.79
2022-09-13T09:16:59.621Z,89.50
2022-09-13T09:17:59.644Z,89.02
2022-09-13T09:18:59.665Z,89.22
2022-09-13T09:19:59.688Z,89.40
2022-09-13T09:20:59.711Z,88.83
2022-09-13T09:21:59.733Z,90.17
2022-09-13T09:22:59.763Z,90.80
2022-09-13T09:23:59.781Z,90.31
2022-09-13T09:24:59.801Z,90.60
2022-09-13T09:25:59.827Z,90.70
2022-09-13T09:26:59.849Z,90.80
2022-09-13T09:27:59.873Z,91.28
2022-09-13T09:28:59.893Z,91.66
2022-09-13T09:29:59.915Z,93.19
2022-09-13T09:31:00.019Z,94.06
2022-09-13T09:31:59.971Z,93.49
2022-09-13T09:32:59.983Z,94.93
2022-09-13T09:34:00.005Z,94.45
2022-09-13T09:35:00.029Z,95.40
2022-09-13T09:36:00.059Z,94.93
2022-09-13T09:37:00.077Z,95.79
2022-09-13T09:38:00.098Z,94.93
2022-09-13T09:39:00.124Z,94.93
2022-09-13T09:40:00.223Z,95.60
2022-09-13T09:41:00.165Z,95.75
2022-09-13T09:42:00.194Z,94.68
2022-09-13T09:43:00.215Z,95.36
2022-09-13T09:44:00.247Z,95.17
2022-09-13T09:45:00.273Z,96.32
2022-09-13T09:46:00.319Z,97.19
2022-09-13T09:47:00.304Z,95.65
2022-09-13T09:48:00.329Z,95.55
2022-09-13T09:49:00.349Z,95.70
2022-09-13T09:50:00.373Z,96.37
2022-09-13T09:51:00.398Z,99.73
2022-09-13T09:52:00.421Z,98.39
2022-09-13T09:53:00.444Z,98.58
2022-09-13T09:54:00.467Z,98.68
2022-09-13T09:55:00.491Z,98.68
2022-09-13T09:56:00.516Z,97.96
2022-09-13T09:57:00.538Z,99.11
2022-09-13T09:58:00.563Z,99.99
2022-09-13T09:59:00.593Z,99.99
2022-09-13T10:00:00.608Z,99.99
2022-09-13T10:01:00.700Z,99.99
2022-09-13T10:02:00.709Z,99.99
2022-09-13T10:03:00.683Z,99.99
2022-09-13T10:04:00.707Z,99.99
2022-09-13T10:05:00.729Z,99.99
2022-09-13T10:06:00.757Z,99.99
2022-09-13T10:07:00.775Z,99.99
2022-09-13T10:08:00.800Z,99.99
2022-09-13T10:09:00.823Z,99.99
2022-09-13T10:10:00.847Z,99.99
2022-09-13T10:11:00.873Z,99.99
2022-09-13T10:12:00.900Z,99.99
2022-09-13T10:13:00.917Z,99.99
2022-09-13T10:14:00.947Z,99.99
2022-09-13T10:15:00.971Z,99.99
2022-09-13T10:16:00.989Z,99.99
2022-09-13T10:17:01.069Z,99.99
2022-09-13T10:18:01.037Z,99.99
2022-09-13T10:19:01.062Z,99.99
2022-09-13T10:20:01.091Z,99.99
2022-09-13T10:21:01.111Z,99.99
2022-09-13T10:22:01.134Z,99.99
2022-09-13T10:23:01.159Z,99.99
2022-09-13T10:24:01.184Z,99.99
2022-09-13T10:25:01.208Z,99.99
2022-09-13T10:26:01.232Z,99.99
2022-09-13T10:27:01.261Z,99.99
2022-09-13T10:28:01.282Z,99.99
2022-09-13T10:29:01.307Z,99.99
2022-09-13T10:30:01.331Z,99.99
2022-09-13T10:31:01.404Z,99.99
2022-09-13T10:32:01.378Z,99.99
2022-09-13T10:33:01.403Z,99.99
2022-09-13T10:34:01.427Z,99.99
2022-09-13T10:35:01.451Z,99.99
2022-09-13T10:36:01.475Z,99.99
2022-09-13T10:37:01.499Z,99.99
2022-09-13T10:38:01.530Z,99.99
2022-09-13T10:39:01.550Z,99.99
2022-09-13T10:40:01.688Z,99.99
2022-09-13T10:41:01.600Z,99.99
2022-09-13T10:42:01.621Z,99.99
2022-09-13T10:43:01.645Z,99.99
2022-09-13T10:44:02.496Z,99.99
2022-09-13T10:45:01.691Z,99.99
2022-09-13T10:46:01.789Z,99.99
2022-09-13T10:47:01.743Z,99.99
2022-09-13T10:48:01.767Z,99.99
2022-09-13T10:49:01.790Z,99.99
2022-09-13T10:50:01.815Z,99.99
2022-09-13T10:51:01.840Z,99.99
2022-09-13T10:52:01.865Z,99.99
2022-09-13T10:53:01.887Z,99.99
2022-09-13T10:54:01.915Z,99.99
2022-09-13T10:55:01.937Z,99.99
2022-09-13T10:56:01.959Z,99.99
2022-09-13T10:57:01.984Z,99.99
2022-09-13T10:58:02.009Z,99.99
2022-09-13T10:59:02.032Z,99.99
2022-09-13T11:00:02.058Z,99.99
2022-09-13T11:01:02.102Z,99.99
2022-09-13T11:02:02.106Z,99.99
2022-09-13T11:03:02.128Z,99.99
2022-09-13T11:04:02.184Z,99.99
2022-09-13T11:05:02.174Z,99.99
2022-09-13T11:06:02.199Z,99.99
2022-09-13T11:07:02.368Z,99.99
2022-09-13T11:08:02.250Z,99.99
2022-09-13T11:09:02.270Z,99.99
2022-09-13T11:10:02.294Z,99.99
2022-09-13T11:11:02.320Z,99.99
2022-09-13T11:12:02.344Z,99.99
2022-09-13T11:13:02.364Z,99.99
2022-09-13T11:14:02.391Z,99.99
2022-09-13T11:15:02.414Z,99.99
2022-09-13T11:16:02.440Z,99.99
2022-09-13T11:17:02.458Z,99.99
2022-09-13T11:18:02.480Z,99.99
2022-09-13T11:19:02.501Z,99.99
2022-09-13T11:20:02.525Z,99.99
2022-09-13T11:21:02.550Z,99.99
2022-09-13T11:22:02.570Z,99.99
2022-09-13T11:23:02.593Z,99.99
2022-09-13T11:24:02.618Z,99.99
2022-09-13T11:25:02.643Z,99.99
2022-09-13T11:26:02.660Z,99.99
2022-09-13T11:27:02.686Z,99.99
2022-09-13T11:28:02.708Z,99.99
2022-09-13T11:29:02.727Z,99.99
2022-09-13T11:30:02.748Z,99.99
2022-09-13T11:31:02.770Z,99.99
2022-09-13T11:32:02.900Z,99.99
2022-09-13T11:33:02.818Z,99.99
2022-09-13T11:34:02.836Z,99.99
2022-09-13T11:35:02.856Z,99.99
2022-09-13T11:36:02.880Z,99.99
2022-09-13T11:37:02.921Z,99.99
2022-09-13T11:38:02.930Z,99.99
2022-09-13T11:39:02.946Z,99.99
2022-09-13T11:40:03.043Z,99.99
2022-09-13T11:41:02.996Z,99.99
2022-09-13T11:42:03.026Z,99.99
2022-09-13T11:43:03.031Z,99.99
2022-09-13T11:44:03.054Z,99.99
2022-09-13T11:45:03.074Z,99.99
2022-09-13T11:46:03.153Z,99.99
2022-09-13T11:47:03.118Z,99.99
2022-09-13T11:48:03.147Z,99.99
2022-09-13T11:49:03.160Z,99.99
2022-09-13T11:50:03.183Z,99.99
2022-09-13T11:51:03.203Z,99.99
2022-09-13T11:52:03.223Z,99.99
2022-09-13T11:53:03.247Z,99.99
2022-09-13T11:54:03.266Z,99.99
2022-09-13T11:55:03.288Z,99.99
2022-09-13T11:56:03.313Z,99.99
2022-09-13T11:57:03.331Z,99.99
2022-09-13T11:58:03.355Z,99.68
2022-09-13T11:59:03.375Z,99.49
2022-09-13T12:00:03.402Z,99.40
2022-09-13T12:01:03.420Z,98.63
2022-09-13T12:02:03.544Z,98.82
2022-09-13T12:03:03.580Z,98.43
2022-09-13T12:04:03.481Z,98.34
2022-09-13T12:05:21.442Z,97.81
2022-09-13T12:06:03.527Z,98.14
2022-09-13T12:07:03.548Z,98.00
2022-09-13T12:08:03.570Z,98.00
2022-09-13T12:09:03.589Z,97.52
2022-09-13T12:10:03.612Z,97.52
2022-09-13T12:11:03.633Z,97.42
2022-09-13T12:12:03.656Z,96.85
2022-09-13T12:13:03.678Z,96.85
2022-09-13T12:14:03.700Z,96.66
2022-09-13T12:15:03.721Z,96.27
2022-09-13T12:16:03.745Z,95.98
2022-09-13T12:17:03.765Z,95.75
2022-09-13T12:18:03.788Z,95.70
2022-09-13T12:19:03.812Z,95.55
2022-09-13T12:20:03.840Z,94.88
2022-09-13T12:21:03.856Z,94.59
2022-09-13T12:22:03.884Z,94.49
2022-09-13T12:23:03.901Z,94.49
2022-09-13T12:24:03.923Z,94.98
2022-09-13T12:25:03.945Z,94.40
2022-09-13T12:26:03.967Z,95.55
2022-09-13T12:27:03.988Z,94.59
2022-09-13T12:28:04.012Z,95.26
2022-09-13T12:29:04.039Z,95.45
2022-09-13T12:30:04.056Z,94.88
2022-09-13T12:31:04.077Z,94.88
2022-09-13T12:32:04.191Z,95.36
2022-09-13T12:33:04.122Z,95.36
2022-09-13T12:34:04.145Z,95.84
2022-09-13T12:35:04.175Z,96.99
2022-09-13T12:36:04.190Z,96.80
2022-09-13T12:37:04.212Z,96.51
2022-09-13T12:38:04.235Z,96.03
2022-09-13T12:39:04.259Z,95.65
2022-09-13T12:40:04.330Z,96.03
2022-09-13T12:41:04.303Z,96.32
2022-09-13T12:42:04.324Z,96.51
2022-09-13T12:43:04.346Z,96.42
2022-09-13T12:44:04.368Z,95.55
2022-09-13T12:45:04.389Z,95.65
2022-09-13T12:46:04.461Z,95.84
2022-09-13T12:47:04.433Z,95.36
2022-09-13T12:48:04.458Z,95.36
2022-09-13T12:49:04.484Z,95.75
2022-09-13T12:51:04.525Z,95.03
2022-09-13T12:52:04.546Z,95.55
2022-09-13T12:53:04.567Z,95.17
2022-09-13T12:54:04.590Z,96.13